createdAt,value
2023-07-04T00:00:16.188Z,0.00
2023-07-04T00:01:16.142Z,0.00
2023-07-04T00:02:16.300Z,0.00
2023-07-04T00:03:16.252Z,0.00
2023-07-04T00:04:16.107Z,0.00
2023-07-04T00:05:16.124Z,0.00
2023-07-04T00:06:16.063Z,0.00
2023-07-04T00:07:16.095Z,0.00
2023-07-04T00:08:16.064Z,0.00
2023-07-04T00:09:16.059Z,0.00
2023-07-04T00:10:16.058Z,0.00
2023-07-04T00:11:16.066Z,0.00
2023-07-04T00:12:16.025Z,0.00
2023-07-04T00:13:16.067Z,0.00
2023-07-04T00:14:16.072Z,0.00
2023-07-04T00:16:33.197Z,0.00
2023-07-04T00:17:27.263Z,0.00
2023-07-04T00:18:27.139Z,0.00
2023-07-04T00:19:27.131Z,0.00
2023-07-04T00:20:27.111Z,0.00
2023-07-04T00:21:27.127Z,0.00
2023-07-04T00:22:27.189Z,0.00
2023-07-04T00:23:27.112Z,0.00
2023-07-04T00:24:27.079Z,0.00
2023-07-04T00:25:27.059Z,0.00
2023-07-04T00:26:27.076Z,0.00
2023-07-04T00:27:27.050Z,0.00
2023-07-04T00:28:27.031Z,0.00
2023-07-04T00:29:27.019Z,0.00
2023-07-04T00:30:27.061Z,0.00
2023-07-04T00:31:27.045Z,0.00
2023-07-04T00:32:27.049Z,0.00
2023-07-04T00:33:26.990Z,0.00
2023-07-04T00:34:26.955Z,0.00
2023-07-04T00:35:26.996Z,0.00
2023-07-04T00:36:26.936Z,0.00
2023-07-04T00:37:26.910Z,0.00
2023-07-04T00:38:26.910Z,0.00
2023-07-04T00:39:26.933Z,0.00
2023-07-04T00:40:26.889Z,0.00
2023-07-04T00:41:26.883Z,0.00
2023-07-04T00:42:26.911Z,0.00
2023-07-04T00:43:26.854Z,0.00
2023-07-04T00:44:26.853Z,0.00
2023-07-04T00:45:26.856Z,0.00
2023-07-04T00:46:26.933Z,0.00
2023-07-04T00:47:26.870Z,0.00
2023-07-04T00:48:26.807Z,0.00
2023-07-04T00:51:47.639Z,0.00
2023-07-04T00:52:48.640Z,0.00
2023-07-04T00:53:48.645Z,0.00
2023-07-04T00:54:48.660Z,0.00
2023-07-04T00:55:48.603Z,0.00
2023-07-04T00:56:48.587Z,0.00
2023-07-04T00:57:48.573Z,0.00
2023-07-04T00:58:48.585Z,0.00
2023-07-04T00:59:48.557Z,0.00
2023-07-04T01:00:48.552Z,0.00
2023-07-04T01:01:48.625Z,0.00
2023-07-04T01:02:48.593Z,0.00
2023-07-04T01:03:48.580Z,0.00
2023-07-04T01:04:48.508Z,0.00
2023-07-04T01:05:48.481Z,0.00
2023-07-04T01:06:48.461Z,0.00
2023-07-04T01:07:48.499Z,0.00
2023-07-04T01:08:48.458Z,0.00
2023-07-04T01:09:48.481Z,0.00
2023-07-04T01:10:48.443Z,0.00
2023-07-04T01:11:48.405Z,0.00
2023-07-04T01:12:48.434Z,0.00
2023-07-04T01:13:48.424Z,0.00
2023-07-04T01:14:48.380Z,0.00
2023-07-04T01:15:48.428Z,0.00
2023-07-04T01:16:48.396Z,0.00
2023-07-04T01:17:48.408Z,0.00
2023-07-04T01:18:48.378Z,0.00
2023-07-04T01:19:48.336Z,0.00
2023-07-04T01:20:48.309Z,0.00
2023-07-04T01:21:48.334Z,0.00
2023-07-04T01:22:48.343Z,0.00
2023-07-04T01:23:48.288Z,0.00
2023-07-04T01:24:48.288Z,0.00
2023-07-04T01:25:48.312Z,0.00
2023-07-04T01:26:48.261Z,0.00
2023-07-04T01:27:48.272Z,0.00
2023-07-04T01:28:48.302Z,0.00
2023-07-04T01:29:48.237Z,0.00
2023-07-04T01:30:48.211Z,0.00
2023-07-04T01:31:48.343Z,0.00
2023-07-04T01:32:48.232Z,0.00
2023-07-04T01:33:48.201Z,0.00
2023-07-04T01:34:48.195Z,0.00
2023-07-04T01:35:48.195Z,0.00
2023-07-04T01:36:48.151Z,0.00
2023-07-04T01:37:48.173Z,0.00
2023-07-04T01:38:48.130Z,0.00
2023-07-04T01:39:48.155Z,0.00
2023-07-04T01:40:48.150Z,0.00
2023-07-04T01:41:48.085Z,0.00
2023-07-04T01:42:48.069Z,0.00
2023-07-04T01:43:48.057Z,0.00
2023-07-04T01:44:48.087Z,0.00
2023-07-04T01:45:48.078Z,0.00
2023-07-04T01:46:48.063Z,0.00
2023-07-04T01:47:48.064Z,0.00
2023-07-04T01:48:48.035Z,0.00
2023-07-04T01:49:48.034Z,0.00
2023-07-04T01:50:48.016Z,0.00
2023-07-04T01:51:47.980Z,0.00
2023-07-04T01:52:48.026Z,0.00
2023-07-04T01:53:47.950Z,0.00
2023-07-04T01:54:47.993Z,0.00
2023-07-04T01:55:47.967Z,0.00
2023-07-04T01:56:47.977Z,0.00
2023-07-04T01:57:47.901Z,0.00
2023-07-04T01:58:47.897Z,0.00
2023-07-04T01:59:47.935Z,0.00
2023-07-04T02:01:58.571Z,0.00
2023-07-04T02:02:59.602Z,0.00
2023-07-04T02:03:59.566Z,0.00
2023-07-04T02:04:59.541Z,0.00
2023-07-04T02:05:59.522Z,0.00
2023-07-04T02:06:59.542Z,0.00
2023-07-04T02:07:59.511Z,0.00
2023-07-04T02:08:59.509Z,0.00
2023-07-04T02:09:59.487Z,0.00
2023-07-04T02:10:59.490Z,0.00
2023-07-04T02:11:59.464Z,0.00
2023-07-04T02:12:59.476Z,0.00
2023-07-04T02:13:59.490Z,0.00
2023-07-04T02:14:59.452Z,0.00
2023-07-04T02:15:59.443Z,0.00
2023-07-04T02:16:59.469Z,0.00
2023-07-04T02:17:59.506Z,0.00
2023-07-04T02:18:59.376Z,0.00
2023-07-04T02:19:59.374Z,0.00
2023-07-04T02:20:59.369Z,0.00
2023-07-04T02:21:59.345Z,0.00
2023-07-04T02:22:59.360Z,0.00
2023-07-04T02:23:59.332Z,0.00
2023-07-04T02:24:59.303Z,0.00
2023-07-04T02:25:59.289Z,0.00
2023-07-04T02:26:59.343Z,0.00
2023-07-04T02:27:59.268Z,0.00
2023-07-04T02:28:59.285Z,0.00
2023-07-04T02:29:59.252Z,0.00
2023-07-04T02:30:59.317Z,0.00
2023-07-04T02:31:59.252Z,0.00
2023-07-04T02:32:59.267Z,0.00
2023-07-04T02:33:59.238Z,0.00
2023-07-04T02:34:59.197Z,0.00
2023-07-04T02:35:59.225Z,0.00
2023-07-04T02:36:59.187Z,0.00
2023-07-04T02:37:59.160Z,0.00
2023-07-04T02:38:59.155Z,0.00
2023-07-04T02:39:59.147Z,0.00
2023-07-04T02:40:59.166Z,0.00
2023-07-04T02:41:59.123Z,0.00
2023-07-04T02:42:59.099Z,0.00
2023-07-04T02:43:59.135Z,0.00
2023-07-04T02:44:59.091Z,0.00
2023-07-04T02:45:59.130Z,0.00
2023-07-04T02:46:59.104Z,0.00
2023-07-04T02:47:59.221Z,0.00
2023-07-04T02:48:59.071Z,0.00
2023-07-04T02:49:59.051Z,0.00
2023-07-04T02:50:59.043Z,0.00
2023-07-04T02:51:59.021Z,0.00
2023-07-04T02:52:59.011Z,0.00
2023-07-04T02:53:59.011Z,0.00
2023-07-04T02:54:58.982Z,0.00
2023-07-04T02:55:58.973Z,0.00
2023-07-04T02:56:58.957Z,0.00
2023-07-04T02:57:58.984Z,0.00
2023-07-04T02:58:58.965Z,0.00
2023-07-04T02:59:58.970Z,0.00
2023-07-04T03:00:58.943Z,0.00
2023-07-04T03:01:58.912Z,0.00
2023-07-04T03:02:58.985Z,0.00
2023-07-04T03:03:59.065Z,0.00
2023-07-04T03:04:58.904Z,0.00
2023-07-04T03:05:58.857Z,0.00
2023-07-04T03:06:58.847Z,0.00
2023-07-04T03:07:58.816Z,0.00
2023-07-04T03:08:58.825Z,0.00
2023-07-04T03:09:58.840Z,0.00
2023-07-04T03:10:58.810Z,0.00
2023-07-04T03:11:59.020Z,0.00
2023-07-04T03:12:58.838Z,0.00
2023-07-04T03:13:58.833Z,0.00
2023-07-04T03:14:58.752Z,0.00
2023-07-04T03:15:58.733Z,5.62
2023-07-04T03:16:58.740Z,5.62
2023-07-04T03:17:58.808Z,5.62
2023-07-04T03:18:58.723Z,5.62
2023-07-04T03:19:58.742Z,5.62
2023-07-04T03:20:58.709Z,5.62
2023-07-04T03:21:58.707Z,5.62
2023-07-04T03:22:58.690Z,5.62
2023-07-04T03:23:58.676Z,5.62
2023-07-04T03:24:58.687Z,5.62
2023-07-04T03:25:58.666Z,5.62
2023-07-04T03:26:58.644Z,5.62
2023-07-04T03:27:58.618Z,5.62
2023-07-04T03:28:58.605Z,5.62
2023-07-04T03:29:58.644Z,11.25
2023-07-04T03:30:58.667Z,11.25
2023-07-04T03:31:58.618Z,11.25
2023-07-04T03:32:58.593Z,11.25
2023-07-04T03:33:58.573Z,11.25
2023-07-04T03:34:58.526Z,11.25
2023-07-04T03:36:00.019Z,11.25
2023-07-04T03:36:58.516Z,11.25
2023-07-04T03:37:58.481Z,11.25
2023-07-04T03:38:58.476Z,11.25
2023-07-04T03:39:58.464Z,11.25
2023-07-04T03:40:58.480Z,16.88
2023-07-04T03:41:58.452Z,16.88
2023-07-04T03:42:58.513Z,16.88
2023-07-04T03:43:58.430Z,16.88
2023-07-04T03:44:58.406Z,16.88
2023-07-04T03:45:58.406Z,16.88
2023-07-04T03:46:58.421Z,16.88
2023-07-04T03:47:58.504Z,16.88
2023-07-04T03:48:58.432Z,16.88
2023-07-04T03:49:58.364Z,22.50
2023-07-04T03:50:58.354Z,22.50
2023-07-04T03:51:58.353Z,22.50
2023-07-04T03:52:58.306Z,22.50
2023-07-04T03:53:58.310Z,22.50
2023-07-04T03:54:58.372Z,22.50
2023-07-04T03:55:58.296Z,22.50
2023-07-04T03:56:58.302Z,22.50
2023-07-04T03:57:58.258Z,22.50
2023-07-04T03:58:58.243Z,22.50
2023-07-04T03:59:58.313Z,28.12
2023-07-04T04:00:58.245Z,28.12
2023-07-04T04:01:58.273Z,28.12
2023-07-04T04:02:58.416Z,28.12
2023-07-04T04:03:58.322Z,28.12
2023-07-04T04:04:58.257Z,28.12
2023-07-04T04:05:58.180Z,28.12
2023-07-04T04:06:58.153Z,28.12
2023-07-04T04:07:58.169Z,28.12
2023-07-04T04:08:58.182Z,33.75
2023-07-04T04:09:58.120Z,33.75
2023-07-04T04:10:58.131Z,33.75
2023-07-04T04:11:58.120Z,33.75
2023-07-04T04:12:58.083Z,33.75
2023-07-04T04:13:58.286Z,33.75
2023-07-04T04:14:58.083Z,33.75
2023-07-04T04:15:58.083Z,33.75
2023-07-04T04:16:58.092Z,33.75
2023-07-04T04:17:58.106Z,39.38
2023-07-04T04:18:58.057Z,39.38
2023-07-04T04:19:58.059Z,39.38
2023-07-04T04:20:58.017Z,39.38
2023-07-04T04:21:58.001Z,39.38
2023-07-04T04:22:58.001Z,39.38
2023-07-04T04:23:57.967Z,39.38
2023-07-04T04:24:57.956Z,39.38
2023-07-04T04:25:57.943Z,39.38
2023-07-04T04:26:57.938Z,45.00
2023-07-04T04:27:57.960Z,45.00
2023-07-04T04:28:57.926Z,45.00
2023-07-04T04:29:57.945Z,45.00
2023-07-04T04:30:57.933Z,45.00
2023-07-04T04:31:57.905Z,45.00
2023-07-04T04:32:57.913Z,45.00
2023-07-04T04:33:57.858Z,45.00
2023-07-04T04:34:57.848Z,45.00
2023-07-04T04:35:57.903Z,50.62
2023-07-04T04:36:57.860Z,50.62
2023-07-04T04:37:57.838Z,50.62
2023-07-04T04:38:57.796Z,50.62
2023-07-04T04:39:57.800Z,50.62
2023-07-04T04:40:57.804Z,50.62
2023-07-04T04:41:57.792Z,50.62
2023-07-04T04:42:57.794Z,50.62
2023-07-04T04:43:57.746Z,56.25
2023-07-04T04:44:57.734Z,56.25
2023-07-04T04:45:57.765Z,56.25
2023-07-04T04:46:57.731Z,56.25
2023-07-04T04:47:57.835Z,56.25
2023-07-04T04:48:57.721Z,56.25
2023-07-04T04:49:57.695Z,56.25
2023-07-04T04:50:57.725Z,56.25
2023-07-04T04:51:57.662Z,56.25
2023-07-04T04:53:00.047Z,61.88
2023-07-04T04:53:57.626Z,61.88
2023-07-04T04:54:57.660Z,61.88
2023-07-04T04:55:57.641Z,61.88
2023-07-04T04:56:57.605Z,61.88
2023-07-04T04:57:57.626Z,61.88
2023-07-04T04:58:57.714Z,61.88
2023-07-04T04:59:57.625Z,61.88
2023-07-04T05:00:57.581Z,67.50
2023-07-04T05:01:57.663Z,67.50
2023-07-04T05:02:57.804Z,67.50
2023-07-04T05:03:57.576Z,67.50
2023-07-04T05:04:57.535Z,67.50
2023-07-04T05:05:57.494Z,67.50
2023-07-04T05:06:57.573Z,67.50
2023-07-04T05:07:57.507Z,67.50
2023-07-04T05:09:00.340Z,73.12
2023-07-04T05:09:57.549Z,73.12
2023-07-04T05:10:57.440Z,73.12
2023-07-04T05:11:57.425Z,73.12
2023-07-04T05:12:57.448Z,73.12
2023-07-04T05:13:57.533Z,73.12
2023-07-04T05:14:57.415Z,73.12
2023-07-04T05:15:57.460Z,73.12
2023-07-04T05:16:57.414Z,73.12
2023-07-04T05:17:57.434Z,73.12
2023-07-04T05:18:57.395Z,73.12
2023-07-04T05:19:57.348Z,73.12
2023-07-04T05:20:57.354Z,73.12
2023-07-04T05:21:57.329Z,78.75
2023-07-04T05:22:57.391Z,78.75
2023-07-04T05:23:57.311Z,78.75
2023-07-04T05:24:57.304Z,78.75
2023-07-04T05:25:57.305Z,78.75
2023-07-04T05:26:57.260Z,78.75
2023-07-04T05:27:57.296Z,84.38
2023-07-04T05:28:57.270Z,84.38
2023-07-04T05:29:57.302Z,84.38
2023-07-04T05:30:57.233Z,90.00
2023-07-04T05:31:57.231Z,84.38
2023-07-04T05:32:57.272Z,84.38
2023-07-04T05:33:57.265Z,84.38
2023-07-04T05:34:57.183Z,84.38
2023-07-04T05:35:57.169Z,84.38
2023-07-04T05:36:57.205Z,84.38
2023-07-04T05:37:57.173Z,90.00
2023-07-04T05:38:57.128Z,90.00
2023-07-04T05:39:57.170Z,90.00
2023-07-04T05:40:57.115Z,90.00
2023-07-04T05:41:57.128Z,90.00
2023-07-04T05:42:57.169Z,90.00
2023-07-04T05:43:57.070Z,95.62
2023-07-04T05:44:57.140Z,95.62
2023-07-04T05:45:57.192Z,95.62
2023-07-04T05:46:57.057Z,95.62
2023-07-04T05:47:57.103Z,95.62
2023-07-04T05:48:57.022Z,95.62
2023-07-04T05:49:57.057Z,101.25
2023-07-04T05:50:57.053Z,101.25
2023-07-04T05:51:57.008Z,101.25
2023-07-04T05:52:57.249Z,101.25
2023-07-04T05:53:56.993Z,101.25
2023-07-04T05:54:56.961Z,101.25
2023-07-04T05:55:57.021Z,101.25
2023-07-04T05:56:56.947Z,106.88
2023-07-04T05:57:56.931Z,106.88
2023-07-04T05:58:56.931Z,106.88
2023-07-04T05:59:56.957Z,106.88
2023-07-04T06:00:56.913Z,106.88
2023-07-04T06:01:56.890Z,106.88
2023-07-04T06:02:56.944Z,106.88
2023-07-04T06:03:57.076Z,112.50
2023-07-04T06:04:56.908Z,118.12
2023-07-04T06:05:56.831Z,118.12
2023-07-04T06:06:56.835Z,112.50
2023-07-04T06:07:56.823Z,112.50
2023-07-04T06:08:56.789Z,112.50
2023-07-04T06:09:56.825Z,112.50
2023-07-04T06:10:56.774Z,118.12
2023-07-04T06:11:56.757Z,118.12
2023-07-04T06:12:56.752Z,118.12
2023-07-04T06:13:56.852Z,118.12
2023-07-04T06:14:56.784Z,123.75
2023-07-04T06:15:56.794Z,123.75
2023-07-04T06:16:57.060Z,123.75
2023-07-04T06:17:56.779Z,123.75
2023-07-04T06:18:56.710Z,112.50
2023-07-04T06:19:56.679Z,118.12
2023-07-04T06:20:56.667Z,129.38
2023-07-04T06:21:56.684Z,135.00
2023-07-04T06:22:56.671Z,129.38
2023-07-04T06:23:56.635Z,129.38
2023-07-04T06:24:56.639Z,129.38
2023-07-04T06:25:56.620Z,135.00
2023-07-04T06:26:56.597Z,129.38
2023-07-04T06:27:56.631Z,135.00
2023-07-04T06:28:56.623Z,129.38
2023-07-04T06:29:56.553Z,135.00
2023-07-04T06:30:56.583Z,135.00
2023-07-04T06:31:56.530Z,135.00
2023-07-04T06:32:56.571Z,135.00
2023-07-04T06:33:56.565Z,135.00
2023-07-04T06:34:56.514Z,140.62
2023-07-04T06:35:56.484Z,140.62
2023-07-04T06:36:56.497Z,135.00
2023-07-04T06:37:56.498Z,140.62
2023-07-04T06:38:56.447Z,140.62
2023-07-04T06:39:56.475Z,140.62
2023-07-04T06:40:56.449Z,140.62
2023-07-04T06:41:56.450Z,140.62
2023-07-04T06:42:56.444Z,140.62
2023-07-04T06:43:56.393Z,140.62
2023-07-04T06:44:59.664Z,146.25
2023-07-04T06:45:56.376Z,146.25
2023-07-04T06:46:56.405Z,146.25
2023-07-04T06:47:56.374Z,146.25
2023-07-04T06:48:56.362Z,146.25
2023-07-04T06:49:56.351Z,151.88
2023-07-04T06:50:56.310Z,151.88
2023-07-04T06:51:56.361Z,151.88
2023-07-04T06:52:56.316Z,151.88
2023-07-04T06:53:56.322Z,157.50
2023-07-04T06:54:56.267Z,157.50
2023-07-04T06:55:56.362Z,157.50
2023-07-04T06:56:56.263Z,157.50
2023-07-04T06:57:56.238Z,163.12
2023-07-04T06:58:56.253Z,163.12
2023-07-04T06:59:56.247Z,163.12
2023-07-04T07:00:56.732Z,163.12
2023-07-04T07:01:56.225Z,163.12
2023-07-04T07:02:56.275Z,168.75
2023-07-04T07:03:56.426Z,168.75
2023-07-04T07:04:56.153Z,168.75
2023-07-04T07:05:56.673Z,168.75
2023-07-04T07:06:56.147Z,174.38
2023-07-04T07:07:56.114Z,174.38
2023-07-04T07:08:56.121Z,174.38
2023-07-04T07:09:56.147Z,180.00
2023-07-04T07:10:56.095Z,180.00
2023-07-04T07:11:56.094Z,185.62
2023-07-04T07:12:56.152Z,185.62
2023-07-04T07:13:56.112Z,191.25
2023-07-04T07:14:56.055Z,191.25
2023-07-04T07:15:56.028Z,191.25
2023-07-04T07:16:56.026Z,196.88
2023-07-04T07:17:56.063Z,196.88
2023-07-04T07:18:56.001Z,196.88
2023-07-04T07:19:56.712Z,196.88
2023-07-04T07:20:55.980Z,196.88
2023-07-04T07:21:55.975Z,196.88
2023-07-04T07:22:55.945Z,196.88
2023-07-04T07:23:57.388Z,202.50
2023-07-04T07:24:56.894Z,202.50
2023-07-04T07:25:56.331Z,202.50
2023-07-04T07:26:56.756Z,202.50
2023-07-04T07:27:56.158Z,208.12
2023-07-04T07:28:55.991Z,208.12
2023-07-04T07:29:55.954Z,208.12
2023-07-04T07:30:56.143Z,208.12
2023-07-04T07:31:55.917Z,213.75
2023-07-04T07:32:55.945Z,213.75
2023-07-04T07:33:55.852Z,213.75
2023-07-04T07:34:56.055Z,219.38
2023-07-04T07:35:55.839Z,219.38
2023-07-04T07:36:55.842Z,219.38
2023-07-04T07:37:55.804Z,219.38
2023-07-04T07:38:55.778Z,219.38
2023-07-04T07:39:55.764Z,219.38
2023-07-04T07:40:55.795Z,219.38
2023-07-04T07:41:55.769Z,230.62
2023-07-04T07:42:55.760Z,337.50
2023-07-04T07:43:55.734Z,556.88
2023-07-04T07:44:55.722Z,635.62
2023-07-04T07:45:55.689Z,652.50
2023-07-04T07:46:55.733Z,675.00
2023-07-04T07:47:55.790Z,691.88
2023-07-04T07:48:55.682Z,686.25
2023-07-04T07:49:55.650Z,669.38
2023-07-04T07:50:55.960Z,669.38
2023-07-04T07:51:55.696Z,652.50
2023-07-04T07:52:55.670Z,635.62
2023-07-04T07:53:55.616Z,658.12
2023-07-04T07:54:55.643Z,680.62
2023-07-04T07:55:55.643Z,703.12
2023-07-04T07:56:55.575Z,708.75
2023-07-04T07:57:55.574Z,714.38
2023-07-04T07:58:55.655Z,720.00
2023-07-04T07:59:56.068Z,703.12
2023-07-04T08:00:55.958Z,720.00
2023-07-04T08:01:55.534Z,708.75
2023-07-04T08:02:55.624Z,708.75
2023-07-04T08:03:55.640Z,748.12
2023-07-04T08:04:55.634Z,787.50
2023-07-04T08:05:55.484Z,770.62
2023-07-04T08:06:55.466Z,742.50
2023-07-04T08:07:55.491Z,765.00
2023-07-04T08:08:55.614Z,759.38
2023-07-04T08:09:55.458Z,765.00
2023-07-04T08:10:55.547Z,753.75
2023-07-04T08:11:55.456Z,781.88
2023-07-04T08:12:55.564Z,781.88
2023-07-04T08:13:55.594Z,748.12
2023-07-04T08:14:55.434Z,742.50
2023-07-04T08:15:55.427Z,736.88
2023-07-04T08:16:55.395Z,759.38
2023-07-04T08:17:55.427Z,798.75
2023-07-04T08:18:55.344Z,821.25
2023-07-04T08:19:55.390Z,810.00
2023-07-04T08:20:55.308Z,798.75
2023-07-04T08:21:55.293Z,843.75
2023-07-04T08:22:55.268Z,860.62
2023-07-04T08:23:55.302Z,832.50
2023-07-04T08:24:55.333Z,838.12
2023-07-04T08:25:55.345Z,866.25
2023-07-04T08:26:55.247Z,888.75
2023-07-04T08:27:55.242Z,871.88
2023-07-04T08:28:55.278Z,866.25
2023-07-04T08:29:55.264Z,877.50
2023-07-04T08:30:55.416Z,855.00
2023-07-04T08:31:55.207Z,860.62
2023-07-04T08:32:55.222Z,866.25
2023-07-04T08:33:55.184Z,843.75
2023-07-04T08:34:55.182Z,838.12
2023-07-04T08:35:55.174Z,871.88
2023-07-04T08:36:55.192Z,871.88
2023-07-04T08:37:55.144Z,883.12
2023-07-04T08:38:55.133Z,860.62
2023-07-04T08:39:55.128Z,849.38
2023-07-04T08:40:55.199Z,866.25
2023-07-04T08:41:55.065Z,860.62
2023-07-04T08:42:55.067Z,866.25
2023-07-04T08:43:55.066Z,883.12
2023-07-04T08:44:56.496Z,883.12
2023-07-04T08:45:55.106Z,866.25
2023-07-04T08:46:55.019Z,888.75
2023-07-04T08:47:55.084Z,888.75
2023-07-04T08:48:54.997Z,871.88
2023-07-04T08:49:54.986Z,894.38
2023-07-04T08:50:55.145Z,905.62
2023-07-04T08:51:54.985Z,894.38
2023-07-04T08:52:54.961Z,905.62
2023-07-04T08:53:54.964Z,905.62
2023-07-04T08:54:54.961Z,928.12
2023-07-04T08:55:54.921Z,922.50
2023-07-04T08:56:54.949Z,922.50
2023-07-04T08:57:54.892Z,905.62
2023-07-04T08:58:54.885Z,905.62
2023-07-04T08:59:54.872Z,905.62
2023-07-04T09:00:55.086Z,916.88
2023-07-04T09:01:54.869Z,950.62
2023-07-04T09:02:54.951Z,973.12
2023-07-04T09:03:54.907Z,973.12
2023-07-04T09:04:54.817Z,945.00
2023-07-04T09:05:54.902Z,967.50
2023-07-04T09:06:54.824Z,990.00
2023-07-04T09:07:54.788Z,956.25
2023-07-04T09:08:54.772Z,922.50
2023-07-04T09:09:54.752Z,928.12
2023-07-04T09:10:55.039Z,933.75
2023-07-04T09:11:54.731Z,967.50
2023-07-04T09:12:54.732Z,1012.50
2023-07-04T09:13:54.872Z,1051.88
2023-07-04T09:14:54.713Z,1096.88
2023-07-04T09:15:54.853Z,1057.50
2023-07-04T09:16:54.673Z,1006.88
2023-07-04T09:17:58.290Z,1018.12
2023-07-04T09:18:54.652Z,1001.25
2023-07-04T09:19:54.689Z,1006.88
2023-07-04T09:20:54.937Z,1029.38
2023-07-04T09:21:54.677Z,995.62
2023-07-04T09:22:54.602Z,978.75
2023-07-04T09:23:54.634Z,990.00
2023-07-04T09:24:54.613Z,978.75
2023-07-04T09:25:54.607Z,973.12
2023-07-04T09:26:54.600Z,950.62
2023-07-04T09:27:54.793Z,995.62
2023-07-04T09:28:54.568Z,1006.88
2023-07-04T09:29:54.572Z,1006.88
2023-07-04T09:30:54.893Z,967.50
2023-07-04T09:31:54.599Z,950.62
2023-07-04T09:32:54.560Z,995.62
2023-07-04T09:33:54.537Z,1051.88
2023-07-04T09:34:54.483Z,1085.62
2023-07-04T09:35:54.488Z,1074.38
2023-07-04T09:36:54.474Z,1051.88
2023-07-04T09:37:54.443Z,1057.50
2023-07-04T09:38:54.459Z,1046.25
2023-07-04T09:39:56.226Z,1046.25
2023-07-04T09:40:54.777Z,1063.12
2023-07-04T09:42:54.451Z,1102.50
2023-07-04T09:43:54.412Z,1040.62
2023-07-04T09:44:54.377Z,1006.88
2023-07-04T09:45:54.385Z,1102.50
2023-07-04T09:46:54.372Z,1125.00
2023-07-04T09:47:54.366Z,1091.25
2023-07-04T09:48:54.334Z,1096.88
2023-07-04T09:49:54.333Z,1130.62
2023-07-04T09:50:54.545Z,1158.75
2023-07-04T09:51:54.304Z,1147.50
2023-07-04T09:52:54.330Z,1164.38
2023-07-04T09:53:54.276Z,1181.25
2023-07-04T09:54:54.290Z,1119.38
2023-07-04T09:55:54.509Z,1085.62
2023-07-04T09:56:54.277Z,1108.12
2023-07-04T09:57:54.239Z,1074.38
2023-07-04T09:58:54.232Z,1063.12
2023-07-04T09:59:55.692Z,1063.12
2023-07-04T10:00:54.402Z,1040.62
2023-07-04T10:01:54.290Z,1035.00
2023-07-04T10:02:54.402Z,1023.75
2023-07-04T10:03:54.172Z,1068.75
2023-07-04T10:04:54.194Z,1051.88
2023-07-04T10:05:54.166Z,1085.62
2023-07-04T10:06:54.180Z,1074.38
2023-07-04T10:07:54.123Z,1074.38
2023-07-04T10:08:54.133Z,1012.50
2023-07-04T10:09:54.108Z,1068.75
2023-07-04T10:10:54.430Z,1130.62
2023-07-04T10:11:54.085Z,1136.25
2023-07-04T10:12:54.107Z,1186.88
2023-07-04T10:13:54.230Z,1226.25
2023-07-04T10:14:54.039Z,1203.75
2023-07-04T10:15:54.123Z,1186.88
2023-07-04T10:16:54.093Z,1147.50
2023-07-04T10:17:54.054Z,405.00
2023-07-04T10:18:54.022Z,1130.62
2023-07-04T10:19:54.001Z,1085.62
2023-07-04T10:20:54.203Z,1085.62
2023-07-04T10:21:53.969Z,1130.62
2023-07-04T10:22:54.415Z,1068.75
2023-07-04T10:23:53.954Z,1080.00
2023-07-04T10:24:53.954Z,1164.38
2023-07-04T10:25:54.004Z,1220.62
2023-07-04T10:26:53.921Z,1231.88
2023-07-04T10:27:53.909Z,1198.12
2023-07-04T10:28:53.906Z,1147.50
2023-07-04T10:29:53.897Z,1147.50
2023-07-04T10:30:53.899Z,1153.12
2023-07-04T10:31:53.866Z,1125.00
2023-07-04T10:32:53.908Z,1192.50
2023-07-04T10:33:53.850Z,1248.75
2023-07-04T10:34:53.880Z,1271.25
2023-07-04T10:35:53.825Z,1310.62
2023-07-04T10:36:53.808Z,1254.38
2023-07-04T10:37:53.797Z,1288.12
2023-07-04T10:38:53.803Z,1170.00
2023-07-04T10:39:53.814Z,528.75
2023-07-04T10:40:53.990Z,1321.88
2023-07-04T10:41:53.769Z,883.12
2023-07-04T10:42:53.737Z,1198.12
2023-07-04T10:43:53.777Z,1153.12
2023-07-04T10:44:53.726Z,1119.38
2023-07-04T10:46:01.198Z,1085.62
2023-07-04T10:46:53.733Z,1186.88
2023-07-04T10:47:53.736Z,1288.12
2023-07-04T10:48:53.722Z,1321.88
2023-07-04T10:49:53.698Z,1288.12
2023-07-04T10:50:53.919Z,1276.88
2023-07-04T10:51:53.657Z,1288.12
2023-07-04T10:52:53.643Z,1276.88
2023-07-04T10:53:53.647Z,1271.25
2023-07-04T10:54:53.609Z,1192.50
2023-07-04T10:55:53.620Z,1141.88
2023-07-04T10:56:53.602Z,1147.50
2023-07-04T10:57:53.605Z,1164.38
2023-07-04T10:58:53.604Z,1147.50
2023-07-04T10:59:53.594Z,1248.75
2023-07-04T11:00:53.888Z,1299.38
2023-07-04T11:01:53.657Z,1276.88
2023-07-04T11:02:53.719Z,1288.12
2023-07-04T11:03:53.554Z,1288.12
2023-07-04T11:04:53.510Z,1237.50
2023-07-04T11:05:53.505Z,1344.38
2023-07-04T11:06:53.498Z,1423.12
2023-07-04T11:07:53.516Z,1333.12
2023-07-04T11:08:53.492Z,1293.75
2023-07-04T11:09:53.453Z,1378.12
2023-07-04T11:10:53.748Z,1378.12
2023-07-04T11:11:53.448Z,1276.88
2023-07-04T11:12:53.409Z,1276.88
2023-07-04T11:13:53.427Z,1293.75
2023-07-04T11:14:53.398Z,1327.50
2023-07-04T11:15:53.404Z,1383.75
2023-07-04T11:16:53.428Z,1389.38
2023-07-04T11:17:53.409Z,1344.38
2023-07-04T11:18:53.352Z,1226.25
2023-07-04T11:19:53.338Z,1293.75
2023-07-04T11:20:53.621Z,1378.12
2023-07-04T11:21:53.318Z,1383.75
2023-07-04T11:23:03.849Z,1282.50
2023-07-04T11:23:53.301Z,1231.88
2023-07-04T11:24:53.334Z,1316.25
2023-07-04T11:25:53.290Z,320.62
2023-07-04T11:26:53.293Z,1333.12
2023-07-04T11:27:53.257Z,1327.50
2023-07-04T11:28:53.287Z,1366.88
2023-07-04T11:29:53.311Z,444.38
2023-07-04T11:30:53.445Z,343.12
2023-07-04T11:31:53.217Z,421.88
2023-07-04T11:32:53.266Z,1372.50
2023-07-04T11:33:53.233Z,405.00
2023-07-04T11:34:53.204Z,1468.12
2023-07-04T11:35:53.189Z,1456.88
2023-07-04T11:36:53.179Z,1395.00
2023-07-04T11:37:53.158Z,388.12
2023-07-04T11:38:53.166Z,1265.62
2023-07-04T11:39:53.171Z,1282.50
2023-07-04T11:40:53.500Z,1310.62
2023-07-04T11:41:53.130Z,1327.50
2023-07-04T11:42:53.097Z,1271.25
2023-07-04T11:43:53.105Z,1260.00
2023-07-04T11:44:53.091Z,1226.25
2023-07-04T11:45:53.182Z,1265.62
2023-07-04T11:46:53.087Z,1316.25
2023-07-04T11:47:53.186Z,1423.12
2023-07-04T11:48:53.080Z,1372.50
2023-07-04T11:49:53.048Z,1344.38
2023-07-04T11:50:53.319Z,1192.50
2023-07-04T11:51:53.006Z,1254.38
2023-07-04T11:52:53.099Z,1321.88
2023-07-04T11:53:53.002Z,1344.38
2023-07-04T11:54:53.007Z,1350.00
2023-07-04T11:55:52.959Z,1327.50
2023-07-04T11:56:53.036Z,1288.12
2023-07-04T11:57:53.070Z,1293.75
2023-07-04T11:58:52.945Z,1293.75
2023-07-04T11:59:52.949Z,354.38
2023-07-04T12:00:53.315Z,343.12
2023-07-04T12:01:52.933Z,883.12
2023-07-04T12:02:53.054Z,855.00
2023-07-04T12:03:52.987Z,1170.00
2023-07-04T12:04:53.170Z,1276.88
2023-07-04T12:05:52.952Z,472.50
2023-07-04T12:06:52.856Z,1288.12
2023-07-04T12:07:52.836Z,1383.75
2023-07-04T12:08:52.812Z,759.38
2023-07-04T12:09:52.823Z,1130.62
2023-07-04T12:10:53.057Z,568.12
2023-07-04T12:11:52.818Z,450.00
2023-07-04T12:12:52.799Z,320.62
2023-07-04T12:13:52.801Z,286.88
2023-07-04T12:14:52.762Z,393.75
2023-07-04T12:15:52.789Z,1237.50
2023-07-04T12:16:52.751Z,483.75
2023-07-04T12:17:52.804Z,1198.12
2023-07-04T12:18:52.716Z,1192.50
2023-07-04T12:19:52.720Z,1231.88
2023-07-04T12:20:52.939Z,1209.38
2023-07-04T12:21:52.711Z,1164.38
2023-07-04T12:22:52.678Z,1192.50
2023-07-04T12:23:52.671Z,1254.38
2023-07-04T12:24:52.704Z,444.38
2023-07-04T12:25:52.999Z,376.88
2023-07-04T12:26:52.646Z,343.12
2023-07-04T12:27:52.643Z,326.25
2023-07-04T12:29:01.704Z,326.25
2023-07-04T12:30:03.375Z,781.88
2023-07-04T12:30:55.565Z,1265.62
2023-07-04T12:31:52.569Z,1344.38
2023-07-04T12:32:52.636Z,1299.38
2023-07-04T12:33:52.607Z,1254.38
2023-07-04T12:35:52.762Z,1299.38
2023-07-04T12:37:01.613Z,1282.50
2023-07-04T12:37:52.580Z,1231.88
2023-07-04T12:38:52.546Z,1175.62
2023-07-04T12:39:52.515Z,1237.50
2023-07-04T12:40:52.469Z,1248.75
2023-07-04T12:41:52.507Z,1265.62
2023-07-04T12:42:52.621Z,1288.12
2023-07-04T12:44:52.489Z,1338.75
2023-07-04T12:49:52.443Z,427.50
2023-07-04T12:50:52.497Z,1091.25
2023-07-04T12:51:52.392Z,1046.25